Time;durP1;ratioP1;P1;durP2;ratioP2;P2;SDS_P1;SDS_P2;PMS_P1;PMS_P2;Temp;Humidity;BMP_temperature;BMP_pressure;BME280_temperature;BME280_humidity;BME280_pressure;Samples;Min_cycle;Max_cycle;Signal;HPM_P1;HPM_P2
2022/03/07 00:01:39;;;;;;;9.15;4.75;;;-3276.70;85.50;;;;;;5049270;28;20481;-44
2022/03/07 00:04:07;;;;;;;7.97;4.45;;;-3276.70;85.60;;;;;;5048081;28;20044;-45
2022/03/07 00:06:35;;;;;;;7.70;5.05;;;-3276.70;85.90;;;;;;5049734;28;20446;-44
2022/03/07 00:09:02;;;;;;;7.45;4.70;;;-3276.70;86.00;;;;;;5031737;28;20036;-44
2022/03/07 00:11:31;;;;;;;7.15;4.65;;;-3276.70;86.00;;;;;;5043395;28;20020;-45
2022/03/07 00:14:01;;;;;;;8.13;4.82;;;-3276.70;85.90;;;;;;5049598;28;20102;-44
2022/03/07 00:16:30;;;;;;;6.82;4.22;;;-3276.70;85.70;;;;;;5049163;28;20098;-45
2022/03/07 00:18:59;;;;;;;6.38;4.80;;;-3276.60;85.70;;;;;;5032326;28;20338;-44
2022/03/07 00:21:25;;;;;;;;;;;-3276.70;85.70;;;;;;5013064;28;20038;-46
2022/03/07 00:23:53;;;;;;;13.23;4.68;;;-3276.70;85.70;;;;;;5029788;28;19912;-47
2022/03/07 00:26:22;;;;;;;6.00;4.30;;;-3276.70;85.70;;;;;;5047130;28;20416;-45
2022/03/07 00:28:50;;;;;;;7.13;4.63;;;-3276.60;85.90;;;;;;5049827;28;20179;-45
2022/03/07 00:31:20;;;;;;;7.13;4.80;;;-3276.70;86.10;;;;;;5032151;28;20033;-45
2022/03/07 00:33:49;;;;;;;7.43;4.93;;;-3276.70;86.20;;;;;;5028510;28;20034;-43
2022/03/07 00:36:18;;;;;;;10.75;4.90;;;-3276.70;86.30;;;;;;5044457;28;20039;-46
2022/03/07 00:38:46;;;;;;;;;;;-3276.70;86.20;;;;;;5032592;28;20029;-46
2022/03/07 00:41:15;;;;;;;6.45;4.82;;;-3276.70;86.20;;;;;;5049645;28;19920;-46
2022/03/07 00:43:41;;;;;;;5.75;4.18;;;-3276.70;86.20;;;;;;5015484;28;20369;-45
2022/03/07 00:46:09;;;;;;;6.35;4.45;;;-3276.70;86.20;;;;;;5048431;28;20472;-46
2022/03/07 00:48:35;;;;;;;9.23;5.53;;;-3276.70;86.10;;;;;;5049344;28;20094;-47
2022/03/07 00:51:00;;;;;;;7.43;4.53;;;-3276.70;86.10;;;;;;5030987;28;20029;-44
2022/03/07 00:53:27;;;;;;;6.68;3.92;;;-3276.60;86.00;;;;;;5049047;28;20048;-44
2022/03/07 00:55:57;;;;;;;9.52;4.45;;;-3276.60;86.00;;;;;;5031053;28;20075;-45
2022/03/07 00:58:24;;;;;;;8.10;4.28;;;-3276.60;86.00;;;;;;5031378;28;20033;-45
2022/03/07 01:00:53;;;;;;;6.53;4.10;;;-3276.60;85.90;;;;;;5049337;28;20037;-43
2022/03/07 01:03:21;;;;;;;6.30;4.10;;;-3276.60;85.80;;;;;;5032041;28;20395;-45
2022/03/07 01:05:52;;;;;;;6.22;4.25;;;-3276.50;85.90;;;;;;5014730;28;20033;-44
2022/03/07 01:08:18;;;;;;;8.85;4.20;;;-3276.50;86.00;;;;;;5031538;28;20400;-43
2022/03/07 01:10:47;;;;;;;7.55;4.25;;;-3276.50;85.90;;;;;;5047880;28;20033;-44
2022/03/07 01:13:15;;;;;;;9.02;4.00;;;-3276.50;85.90;;;;;;5048963;28;20607;-45
2022/03/07 01:15:41;;;;;;;6.60;3.80;;;-3276.50;85.90;;;;;;5030722;28;20040;-45
2022/03/07 01:18:09;;;;;;;10.18;4.07;;;-3276.40;85.90;;;;;;5032798;28;20512;-45
2022/03/07 01:20:36;;;;;;;5.53;4.00;;;-3276.40;85.80;;;;;;5030956;28;20050;-45
2022/03/07 01:23:02;;;;;;;7.28;3.78;;;-3276.40;86.00;;;;;;5031486;28;20045;-44
2022/03/07 01:25:28;;;;;;;5.80;4.07;;;-3276.40;86.00;;;;;;5032515;28;20025;-45
2022/03/07 01:27:57;;;;;;;6.53;4.07;;;-3276.40;85.90;;;;;;5031831;28;20541;-44
2022/03/07 01:30:22;;;;;;;7.45;4.03;;;-3276.40;86.00;;;;;;5032706;28;20079;-45
2022/03/07 01:32:52;;;;;;;6.88;3.92;;;-3276.40;86.00;;;;;;5031764;28;20045;-44
2022/03/07 01:35:22;;;;;;;9.15;4.65;;;-3276.40;86.00;;;;;;5033147;28;20029;-45
2022/03/07 01:37:48;;;;;;;;;;;-3276.40;85.90;;;;;;5033256;28;20108;-45
2022/03/07 01:40:15;;;;;;;6.35;3.90;;;-3276.30;85.90;;;;;;5032683;28;19988;-45
2022/03/07 01:42:42;;;;;;;7.25;4.07;;;-3276.30;86.20;;;;;;5032612;28;20029;-43
2022/03/07 01:45:16;;;;;;;7.13;4.03;;;-3276.30;86.20;;;;;;5032544;28;20442;-45
2022/03/07 01:47:43;;;;;;;5.85;4.43;;;-3276.30;86.10;;;;;;5032345;28;20443;-45
2022/03/07 01:50:13;;;;;;;7.78;4.75;;;-3276.30;86.10;;;;;;5032255;28;20025;-46
2022/03/07 01:52:42;;;;;;;9.02;4.57;;;-3276.30;86.00;;;;;;5031578;28;20028;-45
2022/03/07 01:55:12;;;;;;;6.68;4.28;;;-3276.30;85.90;;;;;;5031003;28;20053;-45
2022/03/07 01:57:43;;;;;;;6.57;3.95;;;-3276.20;85.80;;;;;;5014984;28;20079;-43
2022/03/07 02:00:14;;;;;;;8.38;4.65;;;-3276.20;85.90;;;;;;5031293;28;20116;-46
2022/03/07 02:02:43;;;;;;;6.60;4.60;;;-3276.20;85.90;;;;;;5032253;28;20029;-44
2022/03/07 02:05:10;;;;;;;8.15;4.93;;;-3276.10;85.90;;;;;;5030965;28;20034;-44
2022/03/07 02:07:38;;;;;;;8.73;4.68;;;-3276.10;85.90;;;;;;5032524;28;20112;-46
2022/03/07 02:10:07;;;;;;;9.40;4.68;;;-3276.10;85.90;;;;;;5032379;28;20026;-44
2022/03/07 02:12:33;;;;;;;5.30;4.00;;;-3276.10;85.80;;;;;;5014899;28;20045;-44
2022/03/07 02:15:01;;;;;;;7.20;4.20;;;-3276.10;85.80;;;;;;5031425;28;20269;-46
2022/03/07 02:17:30;;;;;;;8.52;4.43;;;-3276.10;85.70;;;;;;5025806;28;20076;-44
2022/03/07 02:19:59;;;;;;;7.70;3.83;;;-3276.10;85.70;;;;;;5022896;28;20463;-45
2022/03/07 02:22:26;;;;;;;9.05;4.63;;;-3276.10;85.70;;;;;;5038702;28;20033;-44
2022/03/07 02:24:53;;;;;;;6.85;3.78;;;-3276.00;85.50;;;;;;4998119;28;20091;-45
2022/03/07 02:27:19;;;;;;;7.13;4.00;;;-3276.00;85.70;;;;;;5031910;28;20029;-46
2022/03/07 02:29:49;;;;;;;7.57;4.53;;;-3276.00;85.50;;;;;;5034230;28;20025;-45
2022/03/07 02:32:16;;;;;;;7.63;4.18;;;-3276.00;85.50;;;;;;5034006;28;20048;-44
2022/03/07 02:34:43;;;;;;;9.23;4.47;;;-3275.90;85.60;;;;;;5051595;28;20044;-47
2022/03/07 02:37:11;;;;;;;5.57;3.83;;;-3275.90;85.70;;;;;;5033462;28;20033;-43
2022/03/07 02:39:39;;;;;;;8.88;5.13;;;-3275.90;85.80;;;;;;5051622;28;20032;-46
2022/03/07 02:42:06;;;;;;;7.13;4.18;;;-3276.00;85.80;;;;;;5033985;28;20425;-45
2022/03/07 02:44:33;;;;;;;7.03;3.83;;;-3275.90;85.70;;;;;;5051149;28;20032;-45
2022/03/07 02:46:59;;;;;;;7.43;4.22;;;-3275.90;85.60;;;;;;5046909;28;20052;-45
2022/03/07 02:49:25;;;;;;;7.32;4.22;;;-3275.90;85.60;;;;;;5051553;28;20064;-43
2022/03/07 02:51:52;;;;;;;8.90;4.68;;;-3275.90;85.60;;;;;;5051175;28;20461;-44
2022/03/07 02:54:19;;;;;;;6.60;4.28;;;-3275.90;85.60;;;;;;5050987;28;20056;-44
2022/03/07 02:56:46;;;;;;;7.57;4.38;;;-3275.90;85.60;;;;;;5050613;28;20038;-45
2022/03/07 02:59:13;;;;;;;9.40;4.38;;;-3275.90;85.70;;;;;;5050854;28;20104;-44
2022/03/07 03:01:44;;;;;;;11.23;4.50;;;-3275.90;85.70;;;;;;5050049;28;20116;-44
2022/03/07 03:04:11;;;;;;;5.30;4.05;;;-3275.90;85.80;;;;;;5050901;28;20040;-43
2022/03/07 03:06:39;;;;;;;6.45;4.10;;;-3275.90;85.80;;;;;;5050941;28;20082;-45
2022/03/07 03:09:08;;;;;;;6.78;3.80;;;-3275.90;85.80;;;;;;5033793;28;20103;-46
2022/03/07 03:11:35;;;;;;;6.10;4.13;;;-3275.90;86.10;;;;;;5050683;28;20358;-43
2022/03/07 03:14:02;;;;;;;5.28;3.45;;;-3275.90;86.10;;;;;;5033704;28;20855;-45
2022/03/07 03:16:30;;;;;;;6.65;3.80;;;-3275.80;86.10;;;;;;5050718;28;20025;-45
2022/03/07 03:18:56;;;;;;;5.97;3.80;;;-3275.80;85.90;;;;;;5025444;28;20029;-43
2022/03/07 03:21:22;;;;;;;5.13;3.45;;;-3275.90;85.80;;;;;;5050272;28;20041;-46
2022/03/07 03:23:49;;;;;;;5.75;3.50;;;-3275.80;85.90;;;;;;5016130;28;20071;-43
2022/03/07 03:26:16;;;;;;;6.20;3.72;;;-3275.80;85.80;;;;;;5050105;28;20037;-44
2022/03/07 03:28:43;;;;;;;5.22;3.20;;;-3275.80;85.90;;;;;;5050755;28;20040;-43
2022/03/07 03:31:11;;;;;;;8.23;4.38;;;-3275.80;85.80;;;;;;5050376;28;20036;-45
2022/03/07 03:33:43;;;;;;;21.30;11.88;;;-3275.80;85.70;;;;;;5050968;28;20036;-45
2022/03/07 03:36:09;;;;;;;30.20;12.77;;;-3275.70;85.80;;;;;;5050495;28;20323;-46
2022/03/07 03:38:35;;;;;;;35.75;15.40;;;-3275.70;85.70;;;;;;5033198;28;20079;-43
2022/03/07 03:41:04;;;;;;;31.10;15.63;;;-3275.70;85.80;;;;;;5050025;28;20033;-44
2022/03/07 03:43:31;;;;;;;30.73;14.68;;;-3275.70;85.60;;;;;;5050364;28;20094;-43
2022/03/07 03:45:58;;;;;;;34.20;16.25;;;-3275.70;85.70;;;;;;5050364;28;20474;-44
2022/03/07 03:48:25;;;;;;;19.75;9.98;;;-3275.70;85.70;;;;;;5032961;28;20029;-44
2022/03/07 03:50:52;;;;;;;13.88;7.78;;;-3275.60;85.70;;;;;;5032853;28;20025;-43
2022/03/07 03:53:18;;;;;;;17.15;9.50;;;-3275.60;86.10;;;;;;5050234;28;20358;-45
2022/03/07 03:55:44;;;;;;;11.65;5.85;;;-3275.60;86.00;;;;;;5032302;28;20042;-47
2022/03/07 03:58:10;;;;;;;8.00;4.90;;;-3275.70;86.00;;;;;;5050362;28;20040;-44
2022/03/07 04:00:38;;;;;;;7.38;4.40;;;-3275.60;86.00;;;;;;5049728;28;20049;-43
2022/03/07 04:03:06;;;;;;;7.53;3.78;;;-3275.60;86.00;;;;;;5049045;28;20071;-45
2022/03/07 04:05:32;;;;;;;6.05;4.38;;;-3275.60;85.90;;;;;;5049859;28;20025;-46
2022/03/07 04:08:02;;;;;;;8.02;4.80;;;-3275.60;85.90;;;;;;5050195;28;20083;-44
2022/03/07 04:10:27;;;;;;;7.25;4.40;;;-3275.60;85.70;;;;;;5049870;28;20104;-45
2022/03/07 04:12:55;;;;;;;6.13;4.55;;;-3275.60;85.70;;;;;;5050125;28;20517;-47
2022/03/07 04:15:22;;;;;;;8.30;4.90;;;-3275.50;85.60;;;;;;5050024;28;20059;-45
2022/03/07 04:17:54;;;;;;;7.00;5.00;;;-3275.50;85.60;;;;;;5032351;28;20025;-49
2022/03/07 04:20:21;;;;;;;6.43;4.47;;;-3275.40;85.60;;;;;;5028773;28;20061;-46
2022/03/07 04:22:49;;;;;;;6.55;4.85;;;-3275.30;85.80;;;;;;5012289;28;20104;-45
2022/03/07 04:25:16;;;;;;;7.25;4.72;;;-3275.40;85.90;;;;;;5029659;28;20040;-45
2022/03/07 04:27:45;;;;;;;8.60;4.88;;;-3275.40;86.00;;;;;;5028479;28;20089;-45
2022/03/07 04:30:11;;;;;;;8.15;5.03;;;-3275.40;85.80;;;;;;5029744;28;20022;-48
2022/03/07 04:32:40;;;;;;;6.40;4.65;;;-3275.40;85.90;;;;;;5026542;28;20044;-44
2022/03/07 04:35:11;;;;;;;7.75;4.47;;;-3275.40;85.70;;;;;;5011900;28;20132;-46
2022/03/07 04:37:40;;;;;;;7.85;5.00;;;-3275.40;85.70;;;;;;5022434;28;20067;-47
2022/03/07 04:40:11;;;;;;;6.93;5.03;;;-3275.40;85.60;;;;;;5029758;28;20359;-45
2022/03/07 04:42:40;;;;;;;10.18;6.53;;;-3275.30;85.60;;;;;;5029123;28;20064;-44
2022/03/07 04:45:08;;;;;;;11.37;7.83;;;-3275.30;85.60;;;;;;5028691;28;20025;-46
2022/03/07 04:47:35;;;;;;;13.10;9.23;;;-3275.30;85.70;;;;;;5029847;28;20041;-46
2022/03/07 04:50:03;;;;;;;11.30;7.80;;;-3275.30;85.70;;;;;;5029513;28;20084;-47
2022/03/07 04:52:30;;;;;;;12.88;8.57;;;-3275.30;85.60;;;;;;5029604;28;20029;-45
2022/03/07 04:54:57;;;;;;;14.85;9.05;;;-3275.30;85.70;;;;;;5033767;28;20041;-45
2022/03/07 04:57:24;;;;;;;22.48;13.35;;;-3275.30;85.70;;;;;;5033746;28;20029;-47
2022/03/07 04:59:52;;;;;;;24.63;13.68;;;-3275.30;85.70;;;;;;5033597;28;20032;-47
2022/03/07 05:02:19;;;;;;;27.45;15.43;;;-3275.30;85.60;;;;;;5033005;28;20044;-45
2022/03/07 05:04:46;;;;;;;31.70;17.55;;;-3275.30;85.80;;;;;;5033216;28;20096;-46
2022/03/07 05:07:13;;;;;;;30.17;17.65;;;-3275.20;85.90;;;;;;5031772;28;20072;-45
2022/03/07 05:09:44;;;;;;;46.38;23.95;;;-3275.30;86.10;;;;;;5033640;28;20335;-45
2022/03/07 05:12:12;;;;;;;65.85;32.67;;;-3275.30;86.00;;;;;;5032380;28;20102;-45
2022/03/07 05:14:38;;;;;;;61.70;29.70;;;-3275.30;85.90;;;;;;5033534;28;20032;-47
2022/03/07 05:17:06;;;;;;;57.53;29.80;;;-3275.20;85.80;;;;;;5032849;28;20029;-46
2022/03/07 05:19:32;;;;;;;34.88;21.08;;;-3275.30;86.00;;;;;;5035214;28;20056;-46
2022/03/07 05:22:04;;;;;;;36.08;20.77;;;-3275.20;86.00;;;;;;5052513;28;20074;-47
2022/03/07 05:24:31;;;;;;;30.50;17.33;;;-3275.20;86.00;;;;;;5053098;28;20481;-47
2022/03/07 05:26:58;;;;;;;30.33;16.42;;;-3275.30;86.00;;;;;;5052379;28;20043;-48
2022/03/07 05:29:25;;;;;;;16.08;9.98;;;-3275.20;86.00;;;;;;5035164;28;20028;-44
2022/03/07 05:31:51;;;;;;;13.77;8.05;;;-3275.20;86.00;;;;;;5051859;28;20028;-48
2022/03/07 05:34:18;;;;;;;9.73;6.82;;;-3275.20;86.20;;;;;;5052652;28;20025;-45
2022/03/07 05:36:45;;;;;;;8.80;6.03;;;-3275.20;86.00;;;;;;5035067;28;20083;-45
2022/03/07 05:39:13;;;;;;;11.13;6.00;;;-3275.20;86.20;;;;;;5052954;28;20036;-45
2022/03/07 05:41:42;;;;;;;9.82;5.82;;;-3275.10;86.00;;;;;;5053017;28;20116;-45
2022/03/07 05:44:08;;;;;;;9.88;6.43;;;-3275.10;86.20;;;;;;5052632;28;20373;-44
2022/03/07 05:46:38;;;;;;;13.18;6.53;;;-3275.10;86.10;;;;;;5052465;28;20090;-47
2022/03/07 05:49:03;;;;;;;8.43;5.97;;;-3275.10;86.10;;;;;;5034833;28;20025;-46
2022/03/07 05:51:32;;;;;;;8.32;5.30;;;-3275.00;86.10;;;;;;5034335;28;20055;-44
2022/03/07 05:53:58;;;;;;;9.63;6.90;;;-3275.00;86.30;;;;;;5052646;28;20029;-45
2022/03/07 05:56:29;;;;;;;8.18;5.53;;;-3275.00;86.20;;;;;;5051589;28;20635;-47
2022/03/07 05:58:57;;;;;;;10.80;6.47;;;-3275.00;86.10;;;;;;5052014;28;20434;-48
2022/03/07 06:01:23;;;;;;;10.73;6.30;;;-3275.00;86.20;;;;;;5034444;28;20044;-47
2022/03/07 06:03:49;;;;;;;8.65;6.10;;;-3275.00;86.20;;;;;;5051468;28;20370;-46
2022/03/07 06:06:14;;;;;;;9.45;6.57;;;-3274.90;86.20;;;;;;5045913;28;20026;-44
2022/03/07 06:08:41;;;;;;;11.02;6.63;;;-3274.90;86.20;;;;;;5029470;28;20454;-45
2022/03/07 06:11:10;;;;;;;9.73;6.82;;;-3274.90;86.30;;;;;;5027221;28;20021;-48
2022/03/07 06:13:38;;;;;;;13.07;7.15;;;-3274.90;86.40;;;;;;5042576;28;20033;-50
2022/03/07 06:16:04;;;;;;;9.57;6.57;;;-3274.90;86.60;;;;;;5028684;28;20377;-43
2022/03/07 06:18:33;;;;;;;10.45;6.80;;;-3275.00;86.80;;;;;;5016999;28;20049;-46
2022/03/07 06:20:59;;;;;;;9.77;6.75;;;-3274.90;86.70;;;;;;5041668;28;20061;-46
2022/03/07 06:23:26;;;;;;;9.52;6.97;;;-3275.00;86.90;;;;;;5051488;28;20103;-46
2022/03/07 06:25:53;;;;;;;13.93;6.95;;;-3275.00;86.80;;;;;;5046470;28;20411;-48
2022/03/07 06:28:20;;;;;;;9.15;5.90;;;-3275.10;86.80;;;;;;5031854;28;20487;-45
2022/03/07 06:30:46;;;;;;;9.98;6.20;;;-3275.10;86.60;;;;;;5048840;28;20041;-49
2022/03/07 06:33:17;;;;;;;11.73;6.47;;;-3275.00;86.70;;;;;;5015681;28;20041;-45
2022/03/07 06:35:44;;;;;;;12.27;7.53;;;-3275.10;86.90;;;;;;5030362;28;20467;-45
2022/03/07 06:38:13;;;;;;;12.02;7.32;;;-3275.10;86.90;;;;;;5049319;28;20850;-45
2022/03/07 06:40:42;;;;;;;11.20;7.65;;;-3275.10;86.90;;;;;;5049773;28;20114;-46
2022/03/07 06:43:10;;;;;;;;;;;-3275.20;87.00;;;;;;5047857;28;20032;-46
2022/03/07 06:45:37;;;;;;;10.68;6.50;;;-3275.30;87.00;;;;;;5016762;28;20386;-44
2022/03/07 06:48:04;;;;;;;11.75;7.18;;;-3275.30;86.90;;;;;;5048425;28;20037;-45
2022/03/07 06:50:30;;;;;;;11.32;6.75;;;-3275.30;86.90;;;;;;5030861;28;20026;-44
2022/03/07 06:52:58;;;;;;;14.75;7.38;;;-3275.30;86.90;;;;;;5016284;28;20059;-47
2022/03/07 06:55:23;;;;;;;11.77;6.82;;;-3275.30;86.80;;;;;;5030143;28;20024;-43
2022/03/07 06:57:50;;;;;;;13.80;7.65;;;-3275.30;86.70;;;;;;5031647;28;20047;-43
2022/03/07 07:00:18;;;;;;;11.43;8.38;;;-3275.40;86.80;;;;;;5048308;28;20454;-44
2022/03/07 07:02:46;;;;;;;14.05;8.32;;;-3275.40;86.90;;;;;;5049743;28;20029;-43
2022/03/07 07:05:15;;;;;;;14.27;7.28;;;-3275.60;86.90;;;;;;5048230;28;20038;-50
2022/03/07 07:07:45;;;;;;;;;;;-3275.60;86.80;;;;;;5032096;28;20040;-44
2022/03/07 07:10:15;;;;;;;13.07;7.55;;;-3275.70;86.70;;;;;;5014982;28;19919;-48
2022/03/07 07:12:44;;;;;;;19.60;8.57;;;-3275.70;86.60;;;;;;5039896;28;20114;-43
2022/03/07 07:15:11;;;;;;;13.13;7.00;;;-3275.70;86.60;;;;;;5046070;28;20028;-44
2022/03/07 07:17:40;;;;;;;14.32;7.70;;;-3275.70;86.60;;;;;;5050684;28;20475;-45
2022/03/07 07:20:10;;;;;;;9.02;6.28;;;-3275.80;86.80;;;;;;5031442;28;20077;-43
2022/03/07 07:22:37;;;;;;;10.02;6.15;;;-3275.90;86.80;;;;;;5050800;28;20037;-44
2022/03/07 07:25:13;;;;;;;5.95;4.25;;;-3275.90;86.70;;;;;;5033458;28;20033;-43
2022/03/07 07:27:43;;;;;;;6.22;4.88;;;-3276.00;86.50;;;;;;5032860;28;20078;-45
2022/03/07 07:30:11;;;;;;;5.82;4.13;;;-3276.10;86.70;;;;;;5050539;28;20032;-44
2022/03/07 07:32:39;;;;;;;6.78;4.60;;;-3276.20;86.50;;;;;;5047538;28;20083;-45
2022/03/07 07:35:10;;;;;;;5.80;4.47;;;-3276.30;86.40;;;;;;5031835;28;20025;-44
2022/03/07 07:37:41;;;;;;;6.22;4.32;;;-3276.40;86.50;;;;;;5050024;28;20028;-43
2022/03/07 07:40:08;;;;;;;7.85;4.47;;;-3276.60;86.60;;;;;;5049791;28;20098;-43
2022/03/07 07:42:36;;;;;;;6.43;4.18;;;0.00;86.60;;;;;;5049147;28;20039;-43
2022/03/07 07:45:03;;;;;;;7.35;4.53;;;0.10;86.40;;;;;;5032052;28;20102;-45
2022/03/07 07:47:32;;;;;;;5.57;4.30;;;0.20;86.20;;;;;;5040251;28;20145;-45
2022/03/07 07:49:58;;;;;;;6.55;4.32;;;0.50;86.20;;;;;;5030460;28;20370;-44
2022/03/07 07:52:24;;;;;;;6.25;4.07;;;0.70;86.20;;;;;;5050070;28;20033;-42
2022/03/07 07:54:51;;;;;;;6.40;4.38;;;1.00;86.20;;;;;;5038934;28;20743;-44
2022/03/07 07:57:18;;;;;;;8.07;4.70;;;1.30;85.20;;;;;;5048000;28;20055;-42
2022/03/07 07:59:46;;;;;;;5.68;3.67;;;1.70;85.40;;;;;;5025856;28;20029;-43
2022/03/07 08:02:13;;;;;;;5.65;3.70;;;2.30;85.40;;;;;;5043498;28;20064;-44
2022/03/07 08:04:40;;;;;;;6.65;3.85;;;2.70;83.30;;;;;;5031608;28;20033;-43
2022/03/07 08:07:07;;;;;;;6.07;4.05;;;3.20;83.90;;;;;;5040615;28;20041;-42
2022/03/07 08:09:35;;;;;;;5.72;4.15;;;3.70;82.30;;;;;;5042423;28;20035;-46
2022/03/07 08:12:04;;;;;;;5.55;4.10;;;4.00;80.90;;;;;;5044563;28;20172;-43
2022/03/07 08:14:31;;;;;;;6.15;4.93;;;4.30;79.90;;;;;;5036478;28;20071;-43
2022/03/07 08:16:58;;;;;;;7.88;5.43;;;4.70;79.80;;;;;;5039342;28;20442;-41
2022/03/07 08:19:27;;;;;;;8.60;6.93;;;4.90;78.40;;;;;;5027502;28;20032;-43
2022/03/07 08:21:54;;;;;;;8.93;7.13;;;4.90;78.80;;;;;;5021256;28;20047;-42
2022/03/07 08:24:23;;;;;;;11.60;6.05;;;5.10;79.60;;;;;;5010846;28;20421;-43
2022/03/07 08:26:50;;;;;;;8.98;4.85;;;5.70;78.30;;;;;;5019373;28;20037;-42
2022/03/07 08:29:16;;;;;;;11.88;5.40;;;5.90;77.20;;;;;;5028091;28;20060;-42
2022/03/07 08:31:45;;;;;;;8.05;5.10;;;6.10;77.90;;;;;;5028359;28;20056;-43
2022/03/07 08:34:10;;;;;;;8.38;5.45;;;6.40;77.40;;;;;;5028093;28;20033;-47
2022/03/07 08:36:37;;;;;;;10.80;5.75;;;6.50;77.00;;;;;;5017115;28;20466;-46
2022/03/07 08:39:03;;;;;;;7.90;5.03;;;6.80;77.00;;;;;;5010614;28;20030;-45
2022/03/07 08:41:30;;;;;;;7.93;5.55;;;6.90;77.10;;;;;;5002144;28;20075;-44
2022/03/07 08:43:57;;;;;;;9.23;5.57;;;7.20;76.20;;;;;;5009479;28;20054;-43
2022/03/07 08:46:24;;;;;;;7.05;5.15;;;7.50;76.00;;;;;;5008004;28;20095;-43
2022/03/07 08:48:52;;;;;;;6.75;5.00;;;7.80;75.80;;;;;;5027566;28;20038;-45
2022/03/07 08:51:20;;;;;;;6.75;4.15;;;7.90;75.70;;;;;;5007644;28;20033;-45
2022/03/07 08:53:48;;;;;;;8.30;4.75;;;8.00;74.00;;;;;;5021164;28;20117;-48
2022/03/07 08:56:18;;;;;;;12.82;5.22;;;8.30;75.20;;;;;;5018986;28;20071;-43
2022/03/07 08:58:44;;;;;;;7.45;5.15;;;8.50;73.40;;;;;;5023454;28;20034;-44
2022/03/07 09:01:11;;;;;;;9.60;5.35;;;8.80;73.80;;;;;;5023082;28;20057;-42
2022/03/07 09:03:37;;;;;;;7.45;5.03;;;8.90;72.00;;;;;;5020632;28;20068;-43
2022/03/07 09:06:03;;;;;;;7.70;5.10;;;8.80;71.40;;;;;;5003108;28;20489;-44
2022/03/07 09:08:29;;;;;;;8.57;5.70;;;8.80;73.30;;;;;;5012978;28;20029;-42
2022/03/07 09:10:58;;;;;;;8.80;5.07;;;8.90;72.20;;;;;;5013829;28;20072;-42
2022/03/07 09:13:24;;;;;;;7.22;4.88;;;8.80;71.20;;;;;;5015045;28;20440;-43
2022/03/07 09:15:49;;;;;;;9.27;6.38;;;8.90;71.50;;;;;;5022426;28;20033;-43
2022/03/07 09:18:16;;;;;;;7.65;5.55;;;9.00;71.10;;;;;;5020957;28;20518;-42
2022/03/07 09:20:44;;;;;;;8.38;5.47;;;8.80;70.90;;;;;;5013793;28;20049;-45
2022/03/07 09:23:12;;;;;;;5.95;4.88;;;9.00;71.00;;;;;;5013383;28;20038;-44
2022/03/07 09:25:39;;;;;;;6.32;5.05;;;9.20;70.50;;;;;;5017642;28;20032;-42
2022/03/07 09:28:05;;;;;;;6.10;4.28;;;9.20;70.40;;;;;;5026824;28;20373;-42
2022/03/07 09:30:33;;;;;;;4.78;3.80;;;9.30;69.40;;;;;;5022154;28;20113;-44
2022/03/07 09:33:03;;;;;;;7.10;3.95;;;9.30;68.60;;;;;;5022596;28;20037;-42
2022/03/07 09:35:32;;;;;;;5.70;4.35;;;9.50;67.90;;;;;;5022041;28;20041;-45
2022/03/07 09:38:00;;;;;;;6.68;3.80;;;9.60;68.50;;;;;;5026963;28;20076;-44
2022/03/07 09:40:27;;;;;;;5.22;3.63;;;9.60;66.30;;;;;;5027773;28;20375;-43
2022/03/07 09:42:53;;;;;;;4.95;3.40;;;9.40;66.00;;;;;;5031258;28;20064;-44
2022/03/07 09:45:19;;;;;;;6.93;4.20;;;9.60;66.00;;;;;;5029556;28;20407;-49
2022/03/07 09:47:48;;;;;;;4.97;3.42;;;9.50;66.30;;;;;;5030804;28;20105;-48
2022/03/07 09:50:15;;;;;;;5.65;3.40;;;9.50;62.50;;;;;;5024734;28;20080;-44
2022/03/07 09:52:44;;;;;;;5.70;3.72;;;9.50;63.40;;;;;;5026803;28;20038;-43
2022/03/07 09:55:13;;;;;;;5.47;3.47;;;9.60;64.20;;;;;;5009815;28;20062;-46
2022/03/07 09:57:42;;;;;;;7.60;4.07;;;9.90;64.40;;;;;;5019600;28;20280;-49
2022/03/07 10:00:13;;;;;;;6.38;3.70;;;9.90;63.80;;;;;;5028460;28;20052;-44
2022/03/07 10:02:39;;;;;;;5.57;3.95;;;9.40;62.60;;;;;;5029262;28;20034;-45
2022/03/07 10:05:06;;;;;;;4.90;3.50;;;9.60;65.00;;;;;;5027059;28;20029;-44
2022/03/07 10:07:56;;;;;;;5.93;3.08;;;9.80;62.70;;;;;;5021208;28;20076;-43
2022/03/07 10:10:35;;;;;;;4.95;3.03;;;9.80;63.40;;;;;;5024222;28;20028;-45
2022/03/07 10:13:14;;;;;;;5.35;3.30;;;10.00;62.60;;;;;;5009301;28;20489;-44
2022/03/07 10:15:54;;;;;;;6.17;3.47;;;10.30;61.90;;;;;;5021614;28;20046;-42
2022/03/07 10:18:21;;;;;;;5.38;2.90;;;9.90;59.60;;;;;;5016148;28;20344;-42
2022/03/07 10:20:54;;;;;;;6.03;3.08;;;9.70;59.90;;;;;;5029927;28;20053;-45
2022/03/07 10:23:25;;;;;;;4.93;3.20;;;9.90;60.30;;;;;;5027943;28;20274;-48
2022/03/07 10:26:14;;;;;;;5.32;3.00;;;9.80;58.60;;;;;;5030186;28;20065;-45
2022/03/07 10:28:41;;;;;;;4.50;2.70;;;9.90;61.40;;;;;;5015511;28;20651;-43
2022/03/07 10:31:17;;;;;;;4.05;2.22;;;10.00;59.00;;;;;;5016888;28;20125;-43
2022/03/07 10:33:45;;;;;;;2.47;1.60;;;9.90;51.70;;;;;;4999608;28;20091;-42
2022/03/07 10:36:15;;;;;;;3.20;1.70;;;9.50;48.30;;;;;;4985046;28;20042;-43
2022/03/07 10:38:43;;;;;;;2.17;1.33;;;9.60;49.50;;;;;;5016023;28;20041;-42
2022/03/07 10:41:10;;;;;;;3.58;1.35;;;9.70;49.60;;;;;;5010478;28;20063;-42
2022/03/07 10:43:47;;;;;;;1.92;1.00;;;9.80;48.20;;;;;;5029369;28;20040;-42
2022/03/07 10:46:26;;;;;;;3.80;1.00;;;9.70;46.30;;;;;;5003290;28;20033;-42
2022/03/07 10:48:54;;;;;;;2.63;1.15;;;9.90;46.30;;;;;;5029145;28;20025;-45
2022/03/07 10:51:25;;;;;;;1.50;0.70;;;9.80;47.10;;;;;;5010818;28;20033;-43
2022/03/07 10:53:53;;;;;;;11.05;0.93;;;9.90;44.90;;;;;;5008202;28;20042;-43
2022/03/07 10:56:23;;;;;;;2.15;0.70;;;9.90;43.80;;;;;;5019616;28;20029;-42
2022/03/07 10:58:53;;;;;;;1.23;0.47;;;9.90;43.10;;;;;;5027522;28;20030;-43
2022/03/07 11:01:41;;;;;;;3.03;0.50;;;9.80;44.10;;;;;;5004818;28;20034;-43
2022/03/07 11:04:08;;;;;;;4.93;1.10;;;9.70;43.00;;;;;;5024224;28;20022;-42
2022/03/07 11:06:34;;;;;;;3.90;0.60;;;9.60;44.30;;;;;;5028496;28;20034;-44
2022/03/07 11:09:01;;;;;;;1.58;0.50;;;9.60;42.50;;;;;;5004602;28;20088;-44
2022/03/07 11:11:30;;;;;;;0.52;0.30;;;9.40;42.80;;;;;;4995361;28;20079;-43
2022/03/07 11:13:59;;;;;;;3.83;1.15;;;9.40;41.70;;;;;;5028414;28;20043;-43
2022/03/07 11:16:32;;;;;;;0.88;0.40;;;9.40;42.70;;;;;;5009139;28;20040;-43
2022/03/07 11:18:59;;;;;;;6.03;4.20;;;9.40;41.70;;;;;;5025340;28;20033;-42
2022/03/07 11:21:28;;;;;;;13.63;9.90;;;9.50;42.10;;;;;;5028633;28;20055;-45
2022/03/07 11:23:56;;;;;;;0.98;0.63;;;9.40;42.00;;;;;;5011658;28;20098;-44
2022/03/07 11:26:23;;;;;;;3.13;1.20;;;9.30;41.00;;;;;;5028889;28;20096;-43
2022/03/07 11:28:51;;;;;;;1.65;0.57;;;9.40;42.30;;;;;;5024489;28;20025;-44
2022/03/07 11:31:26;;;;;;;1.67;0.50;;;9.50;41.40;;;;;;5028944;28;20029;-44
2022/03/07 11:33:54;;;;;;;1.75;0.40;;;9.20;41.40;;;;;;4996188;28;20431;-42
2022/03/07 11:36:22;;;;;;;1.75;0.40;;;9.00;41.20;;;;;;5007941;28;20041;-42
2022/03/07 11:39:01;;;;;;;0.70;0.40;;;9.00;40.40;;;;;;5011851;28;20061;-44
2022/03/07 11:41:32;;;;;;;2.40;0.40;;;9.00;41.00;;;;;;5023284;28;20662;-43
2022/03/07 11:44:10;;;;;;;0.70;0.55;;;8.90;40.90;;;;;;5028621;28;21273;-42
2022/03/07 11:46:39;;;;;;;1.23;0.45;;;8.90;43.40;;;;;;5027542;28;20351;-46
2022/03/07 11:49:09;;;;;;;0.68;0.30;;;9.00;42.60;;;;;;4987486;28;20095;-42
2022/03/07 11:51:41;;;;;;;0.65;0.30;;;9.00;41.90;;;;;;5009339;28;20044;-44
2022/03/07 11:54:23;;;;;;;0.70;0.30;;;9.00;42.50;;;;;;5008986;28;20071;-45
2022/03/07 11:56:51;;;;;;;0.73;0.30;;;8.90;39.80;;;;;;5022122;28;20070;-47
2022/03/07 11:59:33;;;;;;;0.38;0.30;;;8.90;40.60;;;;;;5026622;28;20572;-44
2022/03/07 12:02:02;;;;;;;1.15;0.40;;;8.90;41.90;;;;;;5016038;28;20046;-43
2022/03/07 12:04:43;;;;;;;3.53;2.05;;;8.90;41.60;;;;;;5001932;28;20049;-45
2022/03/07 12:07:08;;;;;;;12.15;10.98;;;8.90;41.70;;;;;;5026588;28;20446;-43
2022/03/07 12:09:37;;;;;;;2.20;0.95;;;8.90;42.30;;;;;;5011237;28;20048;-43
2022/03/07 12:12:10;;;;;;;2.80;1.45;;;8.90;41.30;;;;;;5025679;28;20061;-45
2022/03/07 12:14:43;;;;;;;2.17;0.88;;;8.90;42.50;;;;;;5028002;28;20477;-45
2022/03/07 12:17:15;;;;;;;0.28;0.20;;;8.90;43.00;;;;;;4995560;28;20120;-48
2022/03/07 12:19:51;;;;;;;0.57;0.40;;;9.00;42.40;;;;;;5028218;28;20464;-43
2022/03/07 12:22:18;;;;;;;1.52;0.50;;;8.80;42.30;;;;;;5016122;28;20447;-48
2022/03/07 12:24:45;;;;;;;3.05;2.22;;;8.70;42.10;;;;;;5001957;28;20033;-42
2022/03/07 12:27:12;;;;;;;1.90;1.10;;;8.50;41.50;;;;;;5006938;28;20178;-45
2022/03/07 12:29:48;;;;;;;0.47;0.40;;;8.50;42.80;;;;;;5009713;28;20085;-42
2022/03/07 12:32:15;;;;;;;0.30;0.22;;;8.60;43.10;;;;;;4994268;28;20041;-44
2022/03/07 12:34:42;;;;;;;1.25;0.40;;;8.80;42.50;;;;;;5011212;28;20040;-45
2022/03/07 12:37:15;;;;;;;0.77;0.32;;;8.60;42.80;;;;;;5026071;28;20033;-47